Time;durP1;ratioP1;P1;durP2;ratioP2;P2;SDS_P1;SDS_P2;PMS_P1;PMS_P2;Temp;Humidity;BMP_temperature;BMP_pressure;BME280_temperature;BME280_humidity;BME280_pressure;Samples;Min_cycle;Max_cycle;Signal;HPM_P1;HPM_P2
2022/03/23 00:01:58;;;;;;;32.28;14.02;;;5.60;99.90;;;;;;5087926;28;20390;-57
2022/03/23 00:04:24;;;;;;;32.85;15.10;;;5.60;99.90;;;;;;5088084;28;20082;-58
2022/03/23 00:06:49;;;;;;;36.88;13.68;;;5.60;99.90;;;;;;5090062;28;20028;-57
2022/03/23 00:09:15;;;;;;;29.45;14.68;;;5.50;99.90;;;;;;5090161;28;20024;-54
2022/03/23 00:11:41;;;;;;;34.75;14.55;;;5.40;99.90;;;;;;5092157;28;20094;-56
2022/03/23 00:14:09;;;;;;;34.50;14.65;;;5.50;99.90;;;;;;5090575;28;20032;-55
2022/03/23 00:16:39;;;;;;;34.53;14.70;;;5.50;99.90;;;;;;5089427;28;20060;-58
2022/03/23 00:19:07;;;;;;;37.83;15.88;;;5.50;99.90;;;;;;5083651;28;20027;-58
2022/03/23 00:21:33;;;;;;;29.42;14.73;;;5.50;99.90;;;;;;5088979;28;20474;-56
2022/03/23 00:23:58;;;;;;;28.67;14.32;;;5.50;99.90;;;;;;5088883;28;20115;-57
2022/03/23 00:26:24;;;;;;;30.08;15.13;;;5.40;99.90;;;;;;5087893;28;20024;-57
2022/03/23 00:28:50;;;;;;;33.33;15.23;;;5.40;99.90;;;;;;5088349;28;20099;-56
2022/03/23 00:31:16;;;;;;;34.35;16.67;;;5.50;99.90;;;;;;5085913;28;20032;-56
2022/03/23 00:33:42;;;;;;;34.00;15.05;;;5.40;99.90;;;;;;5085503;28;20024;-54
2022/03/23 00:36:09;;;;;;;36.78;15.05;;;5.50;99.90;;;;;;5087839;28;20089;-57
2022/03/23 00:38:35;;;;;;;29.63;15.38;;;5.60;99.90;;;;;;5071797;28;20036;-57
2022/03/23 00:41:03;;;;;;;35.25;15.55;;;5.60;99.90;;;;;;5084421;28;20105;-59
2022/03/23 00:43:29;;;;;;;33.70;16.67;;;5.70;99.90;;;;;;5089750;28;20099;-57
2022/03/23 00:45:54;;;;;;;28.08;13.82;;;5.70;99.90;;;;;;5063665;28;20570;-57
2022/03/23 00:48:20;;;;;;;34.60;15.60;;;5.60;99.90;;;;;;5091410;28;20070;-58
2022/03/23 00:50:46;;;;;;;38.13;15.15;;;5.50;99.90;;;;;;5078883;28;20021;-56
2022/03/23 00:53:12;;;;;;;36.95;15.63;;;5.30;99.90;;;;;;5089809;28;20078;-58
2022/03/23 00:55:40;;;;;;;27.55;14.30;;;5.10;99.90;;;;;;5077894;28;20063;-59
2022/03/23 00:58:06;;;;;;;29.13;15.20;;;4.90;99.90;;;;;;5089447;28;20053;-57
2022/03/23 01:00:31;;;;;;;34.03;16.27;;;4.80;99.90;;;;;;5088189;28;20028;-57
2022/03/23 01:02:57;;;;;;;33.00;15.50;;;4.70;99.90;;;;;;5089193;28;20470;-58
2022/03/23 01:05:22;;;;;;;40.92;16.73;;;4.80;99.90;;;;;;5083569;28;20032;-57
2022/03/23 01:07:48;;;;;;;34.28;15.57;;;4.80;99.90;;;;;;5085384;28;20020;-57
2022/03/23 01:10:15;;;;;;;33.17;16.33;;;4.80;99.90;;;;;;5084350;28;20020;-57
2022/03/23 01:12:43;;;;;;;37.22;15.88;;;4.70;99.90;;;;;;5091084;28;20020;-59
2022/03/23 01:15:11;;;;;;;35.75;15.90;;;4.70;99.90;;;;;;5087858;28;20054;-58
2022/03/23 01:17:37;;;;;;;38.10;17.65;;;4.70;99.90;;;;;;5088193;28;20028;-58
2022/03/23 01:20:09;;;;;;;30.52;16.08;;;4.70;99.90;;;;;;5087274;28;20579;-57
2022/03/23 01:22:36;;;;;;;35.80;16.90;;;4.70;99.90;;;;;;5085434;28;20054;-57
2022/03/23 01:25:03;;;;;;;32.50;16.23;;;4.70;99.90;;;;;;5087423;28;20028;-58
2022/03/23 01:27:29;;;;;;;32.92;15.80;;;4.60;99.90;;;;;;5075868;28;20032;-56
2022/03/23 01:29:54;;;;;;;32.45;16.05;;;4.60;99.90;;;;;;5084438;28;20028;-59
2022/03/23 01:32:20;;;;;;;32.90;16.38;;;4.60;99.90;;;;;;5071268;28;20039;-59
2022/03/23 01:34:46;;;;;;;41.50;18.33;;;4.70;99.90;;;;;;5085193;28;20039;-57
2022/03/23 01:37:11;;;;;;;32.50;15.82;;;4.70;99.90;;;;;;5085820;28;20032;-58
2022/03/23 01:39:37;;;;;;;34.25;16.83;;;4.80;99.90;;;;;;5079359;28;20091;-57
2022/03/23 01:42:03;;;;;;;35.22;17.00;;;4.90;99.90;;;;;;5089229;28;20099;-57
2022/03/23 01:44:28;;;;;;;33.55;16.02;;;5.00;99.90;;;;;;5086777;28;20031;-58
2022/03/23 01:47:03;;;;;;;31.23;16.98;;;5.00;99.90;;;;;;5085200;28;20035;-57
2022/03/23 01:49:29;;;;;;;34.08;17.25;;;5.00;99.90;;;;;;5082339;28;20028;-54
2022/03/23 01:51:54;;;;;;;31.05;15.15;;;5.10;99.90;;;;;;5083357;28;20077;-57
2022/03/23 01:54:20;;;;;;;28.88;15.63;;;4.90;99.90;;;;;;5077013;28;20025;-56
2022/03/23 01:56:48;;;;;;;32.60;15.88;;;4.80;99.90;;;;;;5078143;28;20024;-56
2022/03/23 01:59:14;;;;;;;31.10;16.13;;;4.60;99.90;;;;;;5088598;28;20059;-58
2022/03/23 02:01:40;;;;;;;31.05;16.45;;;4.50;99.90;;;;;;5085038;28;20505;-59
2022/03/23 02:04:06;;;;;;;32.25;15.75;;;4.30;99.90;;;;;;5080458;28;20039;-53
2022/03/23 02:06:31;;;;;;;31.40;15.95;;;4.20;99.90;;;;;;5080843;28;20060;-55
2022/03/23 02:08:57;;;;;;;37.17;16.38;;;4.20;99.90;;;;;;5086022;28;20071;-57
2022/03/23 02:11:24;;;;;;;33.53;16.02;;;4.20;99.90;;;;;;5085440;28;21714;-57
2022/03/23 02:13:53;;;;;;;31.98;15.75;;;4.10;99.90;;;;;;5083634;28;20031;-58
2022/03/23 02:16:18;;;;;;;32.60;17.02;;;4.10;99.90;;;;;;5088903;22;20075;-59
2022/03/23 02:18:44;;;;;;;32.70;16.05;;;4.10;99.90;;;;;;5087102;28;20071;-58
2022/03/23 02:21:13;;;;;;;38.40;16.30;;;4.10;99.90;;;;;;5082650;28;20024;-59
2022/03/23 02:23:39;;;;;;;35.40;16.20;;;4.00;99.90;;;;;;5083539;28;20432;-56
2022/03/23 02:26:06;;;;;;;32.30;16.52;;;4.10;99.90;;;;;;5087753;28;20165;-58
2022/03/23 02:28:32;;;;;;;28.85;15.95;;;4.20;99.90;;;;;;5090007;28;20040;-59
2022/03/23 02:30:58;;;;;;;28.83;15.55;;;4.20;99.90;;;;;;5084651;28;20095;-58
2022/03/23 02:33:23;;;;;;;29.80;16.38;;;4.30;99.90;;;;;;5089010;28;20116;-56
2022/03/23 02:35:49;;;;;;;31.38;15.45;;;4.40;99.90;;;;;;5090053;28;20460;-58
2022/03/23 02:38:16;;;;;;;31.88;15.77;;;4.40;99.90;;;;;;5089070;28;20028;-58
2022/03/23 02:40:42;;;;;;;27.58;15.02;;;4.40;99.90;;;;;;5088869;28;20027;-58
2022/03/23 02:43:08;;;;;;;30.73;15.50;;;4.20;99.90;;;;;;5090277;28;20043;-58
2022/03/23 02:45:34;;;;;;;31.92;15.57;;;4.10;99.90;;;;;;5096063;28;20461;-58
2022/03/23 02:47:59;;;;;;;30.33;15.20;;;4.10;99.90;;;;;;5094465;28;20024;-57
2022/03/23 02:50:26;;;;;;;32.25;15.63;;;4.20;99.90;;;;;;5095210;28;20020;-59
2022/03/23 03:04:11;;;;;;;33.15;16.75;;;4.20;99.90;;;;;;5093934;28;20397;-57
2022/03/23 03:06:36;;;;;;;34.05;15.85;;;4.10;99.90;;;;;;5093999;28;20029;-59
2022/03/23 03:09:02;;;;;;;36.25;17.00;;;4.00;99.90;;;;;;5094076;28;20393;-58
2022/03/23 03:11:27;;;;;;;31.42;15.02;;;3.90;99.90;;;;;;5093926;28;20111;-58
2022/03/23 03:13:53;;;;;;;34.50;16.75;;;3.80;99.90;;;;;;5094834;28;20024;-58
2022/03/23 03:16:19;;;;;;;33.50;17.23;;;3.70;99.90;;;;;;5093683;28;20416;-58
2022/03/23 03:18:46;;;;;;;33.72;17.15;;;3.70;99.90;;;;;;5093038;28;20108;-58
2022/03/23 03:21:13;;;;;;;32.38;17.02;;;3.80;99.90;;;;;;5094311;28;20020;-58
2022/03/23 03:23:43;;;;;;;32.67;16.27;;;3.90;99.90;;;;;;5093868;28;20033;-58
2022/03/23 03:26:14;;;;;;;34.97;17.23;;;4.00;99.90;;;;;;5094102;28;20401;-59
2022/03/23 03:28:41;;;;;;;36.75;17.20;;;4.10;99.90;;;;;;5092140;28;20030;-56
2022/03/23 03:31:08;;;;;;;31.88;15.45;;;4.00;99.90;;;;;;5093978;28;20032;-59
2022/03/23 03:33:34;;;;;;;36.58;16.35;;;4.00;99.90;;;;;;5092985;28;20028;-59
2022/03/23 03:36:00;;;;;;;29.92;15.27;;;3.90;99.90;;;;;;5094028;28;20035;-58
2022/03/23 03:38:27;;;;;;;35.45;16.67;;;3.70;99.90;;;;;;5091863;28;20436;-57
2022/03/23 03:40:54;;;;;;;33.47;16.75;;;3.60;99.90;;;;;;5093201;28;20047;-58
2022/03/23 03:43:20;;;;;;;36.08;16.52;;;3.60;99.90;;;;;;5090515;28;20394;-55
2022/03/23 03:45:45;;;;;;;36.38;17.02;;;3.70;99.90;;;;;;5091198;28;20024;-58
2022/03/23 03:48:12;;;;;;;35.42;16.00;;;3.70;99.90;;;;;;5092357;28;20028;-58
2022/03/23 03:50:39;;;;;;;28.75;16.63;;;3.70;99.90;;;;;;5075211;28;20039;-58
2022/03/23 03:53:08;;;;;;;32.50;15.45;;;3.70;99.90;;;;;;5091882;28;20458;-58
2022/03/23 03:55:35;;;;;;;39.17;17.42;;;3.60;99.90;;;;;;5087887;28;20032;-58
2022/03/23 03:58:00;;;;;;;30.30;16.00;;;3.50;99.90;;;;;;5091232;28;20039;-58
2022/03/23 04:00:26;;;;;;;38.83;18.23;;;3.40;99.90;;;;;;5086595;28;20020;-58
2022/03/23 04:02:51;;;;;;;37.15;18.17;;;3.30;99.90;;;;;;5091685;28;20027;-58
2022/03/23 04:05:17;;;;;;;37.53;16.70;;;3.40;99.90;;;;;;5092321;28;20035;-58
2022/03/23 04:07:43;;;;;;;37.88;19.23;;;3.40;99.90;;;;;;5091631;28;20097;-58
2022/03/23 04:10:09;;;;;;;34.90;17.98;;;3.40;99.90;;;;;;5092927;28;20077;-58
2022/03/23 04:12:35;;;;;;;34.55;16.75;;;3.40;99.90;;;;;;5092477;28;20028;-58
2022/03/23 04:15:01;;;;;;;39.90;18.60;;;3.40;99.90;;;;;;5092011;28;20081;-57
2022/03/23 04:17:27;;;;;;;36.13;18.23;;;3.40;99.90;;;;;;5092355;28;20496;-59
2022/03/23 04:19:53;;;;;;;36.72;18.23;;;3.30;99.90;;;;;;5089217;28;20028;-58
2022/03/23 04:22:18;;;;;;;41.75;19.45;;;3.40;99.90;;;;;;5091714;28;20024;-55
2022/03/23 04:24:44;;;;;;;36.95;18.50;;;3.40;99.90;;;;;;5091793;28;20024;-55
2022/03/23 04:27:09;;;;;;;35.00;18.08;;;3.50;99.90;;;;;;5089935;28;20016;-59
2022/03/23 04:29:35;;;;;;;35.03;19.02;;;3.50;99.90;;;;;;5089872;28;20059;-57
2022/03/23 04:32:00;;;;;;;34.33;17.67;;;3.50;99.90;;;;;;5093071;28;20040;-60
2022/03/23 04:34:26;;;;;;;31.48;17.85;;;3.40;99.90;;;;;;5091625;28;20027;-59
2022/03/23 04:36:52;;;;;;;41.10;18.00;;;3.40;99.90;;;;;;5091793;28;20016;-57
2022/03/23 04:39:17;;;;;;;34.28;17.50;;;3.40;99.90;;;;;;5092479;28;20020;-58
2022/03/23 04:41:43;;;;;;;38.97;17.65;;;3.40;99.90;;;;;;5091493;28;20027;-59
2022/03/23 04:44:08;;;;;;;34.13;18.30;;;3.50;99.90;;;;;;5091565;28;20027;-60
2022/03/23 04:46:34;;;;;;;40.28;20.50;;;3.50;99.90;;;;;;5092049;28;20150;-55
2022/03/23 04:48:59;;;;;;;29.77;16.95;;;3.60;99.90;;;;;;5092492;28;20024;-59
2022/03/23 04:51:25;;;;;;;35.70;17.08;;;3.50;99.90;;;;;;5092419;28;20035;-59
2022/03/23 04:53:50;;;;;;;32.08;16.80;;;3.50;99.90;;;;;;5097034;28;20036;-58
2022/03/23 04:56:16;;;;;;;30.13;16.90;;;3.50;99.90;;;;;;5091206;28;20038;-60
2022/03/23 04:58:42;;;;;;;31.10;17.25;;;3.40;99.90;;;;;;5089181;28;20123;-58
2022/03/23 05:01:08;;;;;;;37.72;18.48;;;3.20;99.90;;;;;;5090676;28;20107;-58
2022/03/23 05:03:34;;;;;;;41.38;19.13;;;3.00;99.90;;;;;;5090683;28;20031;-56
2022/03/23 05:06:00;;;;;;;34.13;18.88;;;2.90;99.90;;;;;;5093633;28;20425;-58
2022/03/23 05:08:25;;;;;;;40.15;18.70;;;3.00;99.90;;;;;;5072870;28;20059;-59
2022/03/23 05:10:52;;;;;;;31.67;18.60;;;3.00;99.90;;;;;;5091982;28;20032;-59
2022/03/23 05:13:17;;;;;;;35.90;19.08;;;3.00;99.90;;;;;;5086681;28;20059;-57
2022/03/23 05:15:43;;;;;;;32.97;17.67;;;3.10;99.90;;;;;;5091150;28;20059;-60
2022/03/23 05:18:08;;;;;;;45.53;18.27;;;3.10;99.90;;;;;;5073561;28;20016;-59
2022/03/23 05:20:34;;;;;;;30.90;17.15;;;3.20;99.90;;;;;;5090749;28;20032;-57
2022/03/23 05:23:00;;;;;;;35.97;18.67;;;3.30;99.90;;;;;;5091849;28;20093;-57
2022/03/23 05:25:26;;;;;;;36.15;17.77;;;3.10;99.90;;;;;;5090683;28;20043;-59
2022/03/23 05:27:51;;;;;;;39.58;18.70;;;3.00;99.90;;;;;;5091116;28;20028;-58
2022/03/23 05:30:18;;;;;;;45.05;19.58;;;2.90;99.90;;;;;;5090691;28;20028;-58
2022/03/23 05:32:43;;;;;;;40.33;19.55;;;2.90;99.90;;;;;;5071543;28;20477;-57
2022/03/23 05:35:11;;;;;;;36.75;18.63;;;3.00;99.90;;;;;;5088290;28;20032;-56
2022/03/23 05:37:36;;;;;;;40.00;17.95;;;3.10;99.90;;;;;;5088862;28;20401;-58
2022/03/23 05:40:06;;;;;;;38.40;18.50;;;3.20;99.90;;;;;;5086026;28;20016;-56
2022/03/23 05:42:32;;;;;;;34.05;17.83;;;3.20;99.90;;;;;;5085937;28;20016;-57
2022/03/23 05:44:57;;;;;;;37.35;18.77;;;3.30;99.90;;;;;;5090011;28;20023;-57
2022/03/23 05:47:23;;;;;;;41.92;18.60;;;3.30;99.90;;;;;;5091709;28;20033;-58
2022/03/23 05:49:48;;;;;;;36.65;18.67;;;3.30;99.90;;;;;;5088298;28;20509;-58
2022/03/23 05:52:14;;;;;;;34.08;17.92;;;3.10;99.90;;;;;;5083589;28;20040;-56
2022/03/23 05:54:40;;;;;;;39.53;18.95;;;3.00;99.90;;;;;;5067203;28;20020;-58
2022/03/23 05:57:06;;;;;;;32.92;17.13;;;2.90;99.90;;;;;;5082694;28;20028;-58
2022/03/23 05:59:32;;;;;;;39.42;18.23;;;2.90;99.90;;;;;;5091510;28;20020;-58
2022/03/23 06:01:58;;;;;;;40.25;19.33;;;3.00;99.90;;;;;;5062780;28;20042;-57
2022/03/23 06:04:24;;;;;;;40.95;18.92;;;3.10;99.90;;;;;;5090435;28;20028;-58
2022/03/23 06:06:49;;;;;;;39.95;19.67;;;3.20;99.90;;;;;;5090812;28;20070;-57
2022/03/23 06:09:15;;;;;;;37.10;19.73;;;3.30;99.90;;;;;;5087134;28;20073;-57
2022/03/23 06:11:40;;;;;;;40.72;20.35;;;3.40;99.90;;;;;;5089096;28;20124;-57
2022/03/23 06:14:06;;;;;;;40.97;20.23;;;3.50;99.90;;;;;;5089433;28;20031;-58
2022/03/23 06:16:32;;;;;;;42.33;20.40;;;3.50;99.90;;;;;;5085174;28;20029;-58
2022/03/23 06:18:59;;;;;;;43.30;20.90;;;3.60;99.90;;;;;;5084138;28;20028;-58
2022/03/23 06:21:24;;;;;;;39.25;21.02;;;3.70;99.90;;;;;;5087828;28;20514;-62
2022/03/23 06:23:50;;;;;;;43.75;20.25;;;3.80;99.90;;;;;;5088643;28;20032;-63
2022/03/23 06:26:16;;;;;;;38.72;20.10;;;3.80;99.90;;;;;;5078314;28;20070;-62
2022/03/23 06:28:43;;;;;;;43.15;20.73;;;3.90;99.90;;;;;;5089460;28;20052;-62
2022/03/23 06:31:08;;;;;;;42.40;20.67;;;3.90;99.90;;;;;;5087601;28;20103;-63
2022/03/23 06:33:34;;;;;;;39.85;19.00;;;3.90;99.90;;;;;;5090364;28;20486;-63
2022/03/23 06:35:59;;;;;;;38.88;18.63;;;4.00;99.90;;;;;;5084892;28;20032;-64
2022/03/23 06:38:25;;;;;;;37.15;18.38;;;4.10;99.90;;;;;;5087820;28;20028;-64
2022/03/23 06:40:51;;;;;;;46.17;20.10;;;4.10;99.90;;;;;;5084947;28;20507;-63
2022/03/23 06:43:16;;;;;;;40.35;20.58;;;4.20;99.90;;;;;;5088443;28;20108;-62
2022/03/23 06:45:43;;;;;;;40.90;21.02;;;4.30;99.90;;;;;;5084495;28;20081;-64
2022/03/23 06:48:09;;;;;;;37.80;19.05;;;4.40;99.90;;;;;;5070938;28;20024;-65
2022/03/23 06:50:35;;;;;;;38.67;19.45;;;4.50;99.90;;;;;;5089724;28;20028;-61
2022/03/23 06:53:01;;;;;;;41.40;19.77;;;4.60;99.90;;;;;;5067369;28;20028;-61
2022/03/23 06:55:27;;;;;;;35.90;19.13;;;4.60;99.90;;;;;;5088939;28;20461;-63
2022/03/23 06:57:53;;;;;;;40.90;18.55;;;4.70;99.90;;;;;;5091913;28;20035;-64
2022/03/23 07:00:18;;;;;;;39.42;20.60;;;4.80;99.90;;;;;;5089265;28;20138;-64
2022/03/23 07:02:46;;;;;;;40.25;19.63;;;4.90;99.90;;;;;;5090651;28;20127;-64
2022/03/23 07:05:13;;;;;;;34.97;18.77;;;5.00;99.90;;;;;;5092194;28;20024;-62
2022/03/23 07:09:31;;;;;;;31.20;18.15;;;5.10;99.90;;;;;;5090245;28;20081;-64
2022/03/23 07:10:29;;;;;;;38.13;18.83;;;5.20;99.90;;;;;;5088924;28;20043;-64
2022/03/23 07:12:55;;;;;;;32.08;17.15;;;5.30;99.90;;;;;;5091514;28;20027;-64
2022/03/23 07:15:21;;;;;;;41.00;19.30;;;5.40;99.90;;;;;;5089327;28;20494;-64
2022/03/23 07:17:47;;;;;;;38.42;19.40;;;5.60;99.90;;;;;;5089941;28;20036;-64
2022/03/23 07:20:12;;;;;;;38.60;19.80;;;5.60;99.90;;;;;;5090281;28;20530;-64
2022/03/23 07:22:38;;;;;;;35.60;18.92;;;5.80;99.90;;;;;;5090652;28;20461;-61
2022/03/23 07:25:05;;;;;;;34.40;18.33;;;5.90;99.90;;;;;;5089900;28;20016;-63
2022/03/23 07:27:31;;;;;;;35.92;17.95;;;6.00;99.90;;;;;;5090932;28;20055;-63
2022/03/23 07:29:57;;;;;;;40.50;19.65;;;6.10;99.90;;;;;;5090311;28;20489;-63
2022/03/23 07:32:22;;;;;;;38.75;20.65;;;6.20;99.90;;;;;;5089712;28;20026;-64
2022/03/23 07:34:48;;;;;;;35.78;18.83;;;6.20;99.90;;;;;;5093113;28;20102;-63
2022/03/23 07:37:14;;;;;;;42.30;20.25;;;6.30;99.90;;;;;;5090355;28;20060;-64
2022/03/23 07:39:40;;;;;;;39.85;20.67;;;6.40;99.90;;;;;;5095679;28;20016;-64
2022/03/23 07:42:06;;;;;;;40.50;21.25;;;6.50;99.90;;;;;;5094061;28;20024;-61
2022/03/23 07:44:35;;;;;;;40.25;20.58;;;6.70;99.90;;;;;;5093652;28;20020;-64
2022/03/23 07:47:10;;;;;;;43.33;21.65;;;6.70;99.90;;;;;;5092834;28;20082;-64
2022/03/23 07:49:35;;;;;;;48.63;21.48;;;6.90;99.90;;;;;;5093089;28;20024;-64
2022/03/23 07:52:02;;;;;;;41.20;20.55;;;7.00;99.90;;;;;;5093681;28;20036;-62
2022/03/23 07:54:28;;;;;;;33.30;19.35;;;7.10;99.90;;;;;;5092741;28;20020;-64
2022/03/23 07:56:53;;;;;;;39.13;20.30;;;7.20;99.90;;;;;;5093859;28;20024;-63
2022/03/23 07:59:19;;;;;;;40.15;20.67;;;7.30;99.90;;;;;;5093199;28;20047;-62
2022/03/23 08:01:44;;;;;;;42.05;20.63;;;7.40;99.90;;;;;;5093570;28;20076;-64
2022/03/23 08:04:10;;;;;;;40.42;20.13;;;7.50;99.90;;;;;;5093522;28;20031;-62
2022/03/23 08:06:36;;;;;;;39.95;20.55;;;7.50;99.90;;;;;;5092329;28;20560;-64
2022/03/23 08:09:03;;;;;;;40.70;20.40;;;7.60;99.90;;;;;;5089185;28;20067;-63
2022/03/23 08:11:29;;;;;;;42.08;21.88;;;7.70;99.90;;;;;;5094789;28;20027;-64
2022/03/23 08:13:55;;;;;;;43.17;20.83;;;7.90;99.90;;;;;;5092008;28;20084;-64
2022/03/23 08:16:20;;;;;;;41.60;20.80;;;8.00;99.90;;;;;;5123375;22;20549;-66
2022/03/23 08:18:46;;;;;;;46.83;20.85;;;8.10;99.90;;;;;;5109000;28;20035;-66
2022/03/23 08:21:11;;;;;;;42.72;22.30;;;8.20;99.90;;;;;;5112235;28;20024;-66
2022/03/23 08:23:38;;;;;;;43.10;22.05;;;8.40;99.90;;;;;;5109801;28;20074;-66
2022/03/23 08:26:09;;;;;;;38.58;19.95;;;8.50;99.90;;;;;;5105827;28;20023;-65
2022/03/23 08:28:35;;;;;;;45.78;22.70;;;8.60;99.90;;;;;;5096734;28;20024;-64
2022/03/23 08:31:00;;;;;;;50.78;21.90;;;8.80;99.90;;;;;;5098539;28;20039;-65
2022/03/23 08:33:26;;;;;;;46.40;23.40;;;8.90;99.90;;;;;;5091445;28;20046;-66
2022/03/23 08:35:52;;;;;;;40.92;20.95;;;9.10;99.90;;;;;;5086273;28;20052;-67
2022/03/23 08:38:17;;;;;;;39.10;19.92;;;9.10;99.90;;;;;;5085290;28;20039;-65
2022/03/23 08:40:45;;;;;;;46.63;24.00;;;9.20;99.90;;;;;;5071906;28;20431;-66
2022/03/23 08:43:10;;;;;;;51.83;22.50;;;9.30;99.90;;;;;;5090526;28;20099;-66
2022/03/23 08:45:36;;;;;;;48.65;23.23;;;9.50;99.90;;;;;;5099016;28;20107;-65
2022/03/23 08:48:03;;;;;;;47.45;22.38;;;9.60;99.90;;;;;;5090407;28;20051;-65
2022/03/23 08:50:29;;;;;;;44.65;21.40;;;9.70;99.90;;;;;;5079004;28;20032;-67
2022/03/23 08:52:55;;;;;;;43.08;22.70;;;9.80;99.90;;;;;;5099414;28;20498;-66
2022/03/23 08:55:23;;;;;;;38.90;21.00;;;10.00;99.90;;;;;;5091024;28;20138;-65
2022/03/23 08:57:49;;;;;;;39.60;20.85;;;10.10;99.90;;;;;;5090638;28;20111;-65
2022/03/23 09:00:15;;;;;;;47.03;22.55;;;10.20;99.90;;;;;;5091282;28;20028;-66
2022/03/23 09:02:41;;;;;;;45.78;23.02;;;10.40;99.90;;;;;;5093321;28;20170;-66
2022/03/23 09:05:10;;;;;;;47.65;21.90;;;10.60;99.90;;;;;;5101655;28;20111;-66
2022/03/23 09:07:37;;;;;;;40.63;20.70;;;10.70;99.90;;;;;;5103440;28;20016;-66
2022/03/23 09:10:03;;;;;;;48.80;22.50;;;10.80;99.90;;;;;;5090394;28;20024;-66
2022/03/23 09:12:29;;;;;;;62.30;23.23;;;10.90;99.90;;;;;;5091273;28;20024;-67
2022/03/23 09:14:54;;;;;;;42.80;21.67;;;11.10;99.90;;;;;;5082566;28;20854;-67
2022/03/23 09:17:20;;;;;;;48.15;22.35;;;11.20;99.90;;;;;;5106204;28;20032;-65
2022/03/23 09:19:45;;;;;;;40.90;21.90;;;11.40;99.90;;;;;;5088766;28;20440;-66
2022/03/23 09:22:11;;;;;;;48.05;23.40;;;11.50;99.90;;;;;;5090425;28;20565;-66
2022/03/23 09:24:36;;;;;;;43.45;22.75;;;11.70;99.90;;;;;;5090374;28;20127;-65
2022/03/23 09:27:02;;;;;;;46.63;22.85;;;11.80;99.90;;;;;;5105119;28;20139;-65
2022/03/23 09:29:28;;;;;;;47.38;20.98;;;11.90;99.90;;;;;;5103986;28;20028;-65
2022/03/23 09:31:53;;;;;;;42.10;22.23;;;11.90;99.90;;;;;;5105515;28;20035;-67
2022/03/23 09:34:19;;;;;;;41.22;22.00;;;12.10;99.90;;;;;;5110276;28;20043;-67
2022/03/23 09:39:28;;;;;;;52.35;23.88;;;12.40;99.90;;;;;;5084823;28;20039;-67
2022/03/23 09:41:57;;;;;;;41.55;23.05;;;12.70;99.90;;;;;;5097775;28;20036;-67
2022/03/23 09:44:28;;;;;;;41.70;23.63;;;12.90;99.90;;;;;;5110041;28;20041;-67
2022/03/23 09:46:55;;;;;;;48.35;22.55;;;13.10;99.90;;;;;;5094884;28;20028;-67
2022/03/23 09:49:23;;;;;;;47.03;23.05;;;13.30;99.90;;;;;;5089494;28;20122;-67
2022/03/23 09:51:52;;;;;;;43.28;22.58;;;13.50;99.90;;;;;;5096988;28;20035;-66
2022/03/23 09:54:17;;;;;;;41.25;22.00;;;13.60;99.90;;;;;;5089104;28;20020;-67
2022/03/23 09:56:43;;;;;;;42.42;22.08;;;13.90;99.90;;;;;;5078798;28;20031;-67
2022/03/23 09:59:08;;;;;;;38.40;21.33;;;14.00;99.90;;;;;;5094759;28;20035;-65
2022/03/23 10:01:46;;;;;;;41.50;22.40;;;14.20;99.90;;;;;;5097398;28;20098;-66
2022/03/23 10:04:18;;;;;;;50.65;24.42;;;14.30;99.90;;;;;;5089808;28;20028;-67
2022/03/23 10:07:12;;;;;;;38.70;21.23;;;14.30;99.90;;;;;;5087629;28;20024;-65
2022/03/23 10:10:06;;;;;;;52.42;24.52;;;14.40;99.90;;;;;;5097558;28;20160;-66
2022/03/23 10:13:10;;;;;;;46.30;22.67;;;14.70;99.90;;;;;;5060906;28;20028;-67
2022/03/23 10:16:03;;;;;;;50.85;25.15;;;14.70;99.90;;;;;;5094371;28;20569;-67
2022/03/23 10:18:47;;;;;;;47.25;23.67;;;14.70;99.90;;;;;;5086475;28;20032;-65
2022/03/23 10:21:13;;;;;;;44.60;22.67;;;14.90;99.90;;;;;;5090973;28;20525;-65
2022/03/23 10:23:49;;;;;;;42.42;22.50;;;15.30;99.90;;;;;;5078452;28;20028;-66
2022/03/23 10:26:14;;;;;;;44.55;22.35;;;15.50;99.90;;;;;;5092753;28;20117;-67
2022/03/23 10:28:40;;;;;;;50.17;24.73;;;15.80;99.90;;;;;;5086232;28;20057;-66
2022/03/23 10:31:35;;;;;;;41.47;23.33;;;16.00;99.90;;;;;;5091937;28;20028;-66
2022/03/23 10:34:07;;;;;;;;;;;16.00;99.90;;;;;;5071447;28;20039;-66
2022/03/23 10:36:34;;;;;;;44.30;23.80;;;16.20;99.90;;;;;;5097185;28;19937;-66
2022/03/23 10:39:05;;;;;;;40.60;23.63;;;16.30;99.90;;;;;;5099046;28;20016;-66
2022/03/23 10:41:31;;;;;;;49.03;25.48;;;16.50;99.90;;;;;;5104545;28;20093;-65
2022/03/23 10:43:57;;;;;;;42.67;23.33;;;16.90;99.90;;;;;;5093374;28;20485;-66
2022/03/23 10:46:24;;;;;;;44.47;24.85;;;17.20;99.90;;;;;;5089707;28;20062;-67
2022/03/23 10:49:01;;;;;;;46.58;24.58;;;17.50;99.90;;;;;;5089550;28;20088;-65
2022/03/23 10:51:28;;;;;;;42.33;24.42;;;17.40;99.90;;;;;;5091753;28;20024;-67
2022/03/23 10:53:55;;;;;;;48.95;23.73;;;17.50;99.90;;;;;;5089728;28;20028;-65
2022/03/23 10:56:37;;;;;;;45.33;23.60;;;17.30;99.90;;;;;;5089267;28;20446;-66
2022/03/23 10:59:23;;;;;;;54.33;24.90;;;17.20;99.90;;;;;;5070758;28;20085;-65
2022/03/23 11:02:04;;;;;;;46.38;22.83;;;17.10;99.20;;;;;;5089403;28;20048;-68
2022/03/23 11:04:45;;;;;;;47.35;22.88;;;17.20;99.90;;;;;;5090506;28;20012;-66
2022/03/23 11:07:27;;;;;;;48.20;25.55;;;17.50;99.90;;;;;;5094493;28;20047;-66
2022/03/23 11:18:10;;;;;;;42.92;25.45;;;18.10;97.80;;;;;;5102914;28;20574;-65
2022/03/23 11:20:54;;;;;;;56.22;25.67;;;18.10;97.50;;;;;;5110447;28;20051;-65
2022/03/23 11:23:28;;;;;;;47.90;23.50;;;18.00;96.10;;;;;;5094082;28;20031;-66
2022/03/23 11:26:02;;;;;;;49.17;25.08;;;18.10;96.60;;;;;;5106121;28;20024;-66
2022/03/23 11:28:32;;;;;;;49.55;24.88;;;18.20;96.90;;;;;;5092395;28;20028;-64
2022/03/23 11:30:58;;;;;;;41.15;23.35;;;18.50;97.20;;;;;;5095588;28;20028;-65
2022/03/23 11:33:25;;;;;;;43.60;23.85;;;19.00;96.90;;;;;;5094554;28;20047;-65
2022/03/23 11:35:52;;;;;;;53.03;25.73;;;19.20;95.10;;;;;;5086391;28;20054;-66
2022/03/23 11:38:20;;;;;;;43.88;23.15;;;19.20;94.40;;;;;;5100938;28;20338;-66
2022/03/23 11:40:48;;;;;;;44.97;25.98;;;19.40;94.70;;;;;;5085586;28;20551;-65
2022/03/23 11:43:16;;;;;;;51.40;25.25;;;19.50;92.90;;;;;;5097568;28;20440;-65
2022/03/23 11:45:45;;;;;;;46.50;24.80;;;19.30;92.90;;;;;;5105619;28;20031;-65
2022/03/23 11:48:16;;;;;;;43.55;23.30;;;19.00;92.30;;;;;;5098259;28;20039;-66
2022/03/23 11:50:50;;;;;;;46.13;23.60;;;19.10;93.10;;;;;;5090605;28;20104;-66
2022/03/23 11:53:37;;;;;;;41.60;24.48;;;19.50;92.70;;;;;;5093886;28;20032;-66
2022/03/23 11:56:03;;;;;;;42.97;24.27;;;19.60;91.40;;;;;;5100079;28;20024;-70
2022/03/23 11:58:37;;;;;;;52.47;25.33;;;19.40;91.60;;;;;;5092598;28;20108;-65
2022/03/23 12:01:07;;;;;;;;;;;19.40;91.50;;;;;;5092729;28;20024;-65
2022/03/23 12:04:12;;;;;;;42.42;24.35;;;19.50;91.50;;;;;;5092674;28;19950;-65
2022/03/23 12:06:45;;;;;;;43.40;24.90;;;19.60;90.10;;;;;;5008501;28;20025;-65
2022/03/23 12:09:29;;;;;;;52.70;26.15;;;19.60;90.70;;;;;;5081853;28;20035;-64
2022/03/23 12:11:54;;;;;;;46.85;25.30;;;19.70;90.80;;;;;;5103407;28;20087;-65
2022/03/23 12:14:21;;;;;;;50.70;26.35;;;20.00;90.20;;;;;;5112042;28;20027;-66
2022/03/23 12:16:49;;;;;;;48.88;25.60;;;20.20;88.00;;;;;;5089640;28;20177;-65
2022/03/23 12:19:19;;;;;;;43.95;24.63;;;20.40;87.30;;;;;;5089649;28;20105;-64
2022/03/23 12:21:58;;;;;;;43.33;24.20;;;20.30;85.50;;;;;;5093100;28;20032;-65
2022/03/23 12:24:41;;;;;;;48.28;24.85;;;20.30;84.20;;;;;;5091985;28;20036;-65
2022/03/23 12:27:30;;;;;;;50.58;26.10;;;20.40;79.50;;;;;;5098583;28;20032;-64
2022/03/23 12:29:58;;;;;;;56.67;26.67;;;20.00;82.10;;;;;;5099465;28;20107;-65
2022/03/23 12:32:37;;;;;;;48.97;26.63;;;20.50;81.70;;;;;;5091902;28;20024;-65
2022/03/23 12:35:03;;;;;;;55.45;28.27;;;20.20;79.50;;;;;;5102463;28;20012;-65
2022/03/23 12:37:40;;;;;;;51.47;26.60;;;20.40;81.80;;;;;;5093607;28;20467;-65
2022/03/23 12:40:10;;;;;;;45.60;26.92;;;20.80;80.80;;;;;;5092542;28;20062;-65
2022/03/23 12:42:41;;;;;;;48.80;25.90;;;20.60;83.50;;;;;;5091284;28;20028;-64
2022/03/23 12:45:17;;;;;;;46.00;24.48;;;20.90;79.60;;;;;;5091303;28;20012;-64
2022/03/23 12:47:58;;;;;;;51.92;26.55;;;21.00;77.80;;;;;;5091459;28;20020;-65
2022/03/23 12:59:20;;;;;;;45.38;23.23;;;20.80;75.30;;;;;;5091317;28;20043;-64
2022/03/23 13:01:46;;;;;;;42.83;23.50;;;20.70;75.10;;;;;;5091012;28;20482;-65
2022/03/23 13:04:44;;;;;;;52.00;23.17;;;20.60;73.40;;;;;;5100783;28;20024;-65
2022/03/23 13:07:42;;;;;;;40.25;21.20;;;20.60;72.30;;;;;;5088461;28;20028;-64
2022/03/23 13:10:11;;;;;;;36.53;20.70;;;20.70;70.20;;;;;;5044281;28;20136;-66
2022/03/23 13:12:40;;;;;;;33.63;20.27;;;20.80;71.20;;;;;;5091632;28;20024;-65